createdAt,value
2022-09-12T00:04:28.327Z,10.65
2022-09-12T00:09:29.917Z,9.88
2022-09-12T00:14:34.997Z,9.65
2022-09-12T00:19:36.405Z,7.22
2022-09-12T00:24:37.844Z,7.82
2022-09-12T00:29:39.251Z,8.88
2022-09-12T00:34:40.712Z,8.25
2022-09-12T00:39:43.493Z,9.50
2022-09-12T00:44:50.141Z,10.88
2022-09-12T00:50:00.866Z,14.43
2022-09-12T00:55:05.226Z,12.98
2022-09-12T01:00:15.635Z,15.20
2022-09-12T01:05:17.531Z,15.30
2022-09-12T01:10:20.317Z,13.65
2022-09-12T01:15:22.664Z,10.93
2022-09-12T01:20:41.476Z,13.48
2022-09-12T01:26:01.805Z,14.60
2022-09-12T01:31:28.750Z,13.25
2022-09-12T01:37:08.287Z,12.00
2022-09-12T01:42:31.573Z,14.10
2022-09-12T01:47:54.533Z,16.30
2022-09-12T01:53:08.009Z,13.93
2022-09-12T01:58:14.492Z,14.48
2022-09-12T02:03:24.090Z,14.93
2022-09-12T02:08:31.358Z,16.85
2022-09-12T02:13:46.808Z,16.77
2022-09-12T02:18:55.317Z,12.90
2022-09-12T02:24:01.275Z,14.38
2022-09-12T02:29:04.419Z,13.77
2022-09-12T02:34:09.743Z,14.73
2022-09-12T02:39:11.163Z,12.05
2022-09-12T02:44:12.807Z,12.93
2022-09-12T02:49:16.546Z,14.02
2022-09-12T02:54:19.836Z,13.82
2022-09-12T02:59:24.251Z,13.38
2022-09-12T03:05:02.723Z,15.02
2022-09-12T03:10:32.686Z,22.27
2022-09-12T03:15:42.979Z,21.85
2022-09-12T03:21:09.780Z,18.77
2022-09-12T03:26:26.161Z,18.13
2022-09-12T03:31:27.657Z,16.42
2022-09-12T03:36:30.410Z,18.80
2022-09-12T03:41:31.829Z,17.55
2022-09-12T03:46:33.702Z,21.83
2022-09-12T03:51:35.140Z,21.00
2022-09-12T03:56:36.986Z,20.70
2022-09-12T04:01:38.397Z,19.52
2022-09-12T04:06:39.778Z,19.58
2022-09-12T04:11:41.380Z,19.50
2022-09-12T04:16:42.870Z,21.45
2022-09-12T04:21:44.378Z,22.10
2022-09-12T04:26:45.946Z,20.13
2022-09-12T04:31:48.310Z,23.85
2022-09-12T04:36:49.750Z,22.23
2022-09-12T04:41:51.838Z,23.88
2022-09-12T04:46:53.322Z,24.00
2022-09-12T04:51:57.587Z,24.23
2022-09-12T04:56:59.834Z,22.83
2022-09-12T05:02:02.183Z,21.42
2022-09-12T05:07:05.247Z,24.08
2022-09-12T05:12:07.551Z,24.58
2022-09-12T05:17:09.114Z,24.45
2022-09-12T05:22:10.575Z,22.83
2022-09-12T05:27:11.962Z,24.85
2022-09-12T05:32:13.605Z,20.65
2022-09-12T05:37:15.105Z,23.67
2022-09-12T05:42:16.507Z,24.33
2022-09-12T05:47:18.811Z,18.77
2022-09-12T05:52:20.313Z,18.92
2022-09-12T05:57:21.842Z,19.73
2022-09-12T06:02:23.281Z,19.35
2022-09-12T06:07:24.758Z,20.63
2022-09-12T06:12:29.875Z,20.30
2022-09-12T06:17:31.372Z,21.10
2022-09-12T06:22:32.880Z,25.88
2022-09-12T06:27:34.273Z,20.80
2022-09-12T06:32:35.930Z,19.73
2022-09-12T06:37:37.351Z,20.88
2022-09-12T06:42:38.868Z,17.95
2022-09-12T06:47:40.437Z,21.73
2022-09-12T06:52:41.875Z,21.30
2022-09-12T06:57:43.992Z,23.70
2022-09-12T07:02:45.675Z,23.48
2022-09-12T07:07:47.185Z,22.83
2022-09-12T07:12:48.726Z,19.70
2022-09-12T07:17:50.124Z,19.08
2022-09-12T07:22:51.811Z,18.65
2022-09-12T07:27:53.597Z,17.83
2022-09-12T07:32:55.082Z,19.98
2022-09-12T07:37:56.485Z,23.13
2022-09-12T07:42:58.819Z,19.35
2022-09-12T07:48:00.862Z,18.63
2022-09-12T07:53:03.720Z,23.20
2022-09-12T07:58:05.177Z,19.73
2022-09-12T08:03:07.181Z,19.70
2022-09-12T08:08:08.728Z,20.73
2022-09-12T08:13:10.874Z,19.08
2022-09-12T08:18:12.571Z,20.23
2022-09-12T08:23:14.300Z,18.90
2022-09-12T08:28:17.239Z,21.83
2022-09-12T08:33:18.768Z,21.67
2022-09-12T08:38:20.486Z,17.05
2022-09-12T08:44:13.512Z,19.60
2022-09-12T08:49:37.001Z,15.80
2022-09-12T08:54:39.479Z,15.32
2022-09-12T08:59:45.943Z,16.10
2022-09-12T09:04:52.770Z,12.93
2022-09-12T09:10:00.324Z,14.82
2022-09-12T09:15:21.986Z,11.98
2022-09-12T09:20:33.303Z,11.20
2022-09-12T09:25:56.837Z,9.93
2022-09-12T09:30:58.613Z,9.52
2022-09-12T09:36:16.862Z,11.80
2022-09-12T09:41:41.335Z,10.25
2022-09-12T09:46:42.995Z,8.45
2022-09-12T09:51:45.246Z,6.93
2022-09-12T09:56:47.454Z,7.78
2022-09-12T10:01:57.531Z,7.40
2022-09-12T10:07:01.242Z,8.00
2022-09-12T10:12:24.985Z,9.80
2022-09-12T10:17:44.113Z,7.57
2022-09-12T10:22:47.593Z,7.25
2022-09-12T10:27:58.462Z,7.03
2022-09-12T10:33:08.767Z,4.32
2022-09-12T10:38:21.310Z,5.43
2022-09-12T10:43:38.936Z,4.22
2022-09-12T10:48:40.556Z,2.67
2022-09-12T10:53:46.249Z,4.68
2022-09-12T10:59:08.591Z,2.95
2022-09-12T11:04:22.042Z,3.28
2022-09-12T11:09:23.878Z,2.22
2022-09-12T11:14:36.613Z,2.88
2022-09-12T11:19:54.456Z,2.40
2022-09-12T11:25:12.127Z,2.30
2022-09-12T11:30:17.359Z,2.40
2022-09-12T11:35:24.677Z,2.63
2022-09-12T11:40:38.231Z,4.60
2022-09-12T11:45:45.835Z,1.73
2022-09-12T11:50:47.410Z,2.95
2022-09-12T11:55:56.579Z,1.98
2022-09-12T12:06:12.435Z,1.90
2022-09-12T12:11:25.575Z,2.70
2022-09-12T12:16:30.667Z,2.20
2022-09-12T12:21:47.942Z,2.50
2022-09-12T12:26:58.611Z,3.55
2022-09-12T12:32:00.553Z,2.22
2022-09-12T12:37:20.800Z,3.30
2022-09-12T12:42:34.363Z,1.98
2022-09-12T12:47:35.707Z,2.10
2022-09-12T12:53:00.940Z,2.05
2022-09-12T12:58:03.933Z,1.80
2022-09-12T13:03:08.303Z,4.68
2022-09-12T13:08:27.426Z,1.73
2022-09-12T13:13:40.049Z,1.80
2022-09-12T13:18:49.893Z,1.38
2022-09-12T13:24:12.749Z,1.80
2022-09-12T13:29:19.737Z,2.45
2022-09-12T13:34:24.905Z,2.22
2022-09-12T13:39:54.177Z,1.40
2022-09-12T13:45:04.764Z,1.90
2022-09-12T13:50:12.624Z,3.05
2022-09-12T13:55:32.776Z,2.67
2022-09-12T14:00:34.970Z,2.92
2022-09-12T14:05:39.685Z,1.58
2022-09-12T14:10:44.423Z,1.60
2022-09-12T14:15:49.063Z,2.95
2022-09-12T14:20:54.917Z,1.77
2022-09-12T14:25:59.948Z,1.90
2022-09-12T14:31:04.770Z,1.40
2022-09-12T14:36:24.562Z,1.73
2022-09-12T14:41:36.094Z,1.73
2022-09-12T14:46:39.454Z,3.22
2022-09-12T14:51:51.692Z,2.53
2022-09-12T14:56:56.731Z,2.50
2022-09-12T15:02:16.886Z,2.50
2022-09-12T15:07:32.430Z,2.00
2022-09-12T15:12:34.883Z,2.35
2022-09-12T15:17:36.281Z,1.95
2022-09-12T15:22:38.726Z,1.98
2022-09-12T15:27:42.783Z,2.72
2022-09-12T15:32:44.582Z,1.70
2022-09-12T15:37:47.133Z,1.75
2022-09-12T15:42:48.636Z,1.63
2022-09-12T15:47:50.156Z,2.85
2022-09-12T15:52:51.732Z,4.07
2022-09-12T15:57:53.521Z,2.47
2022-09-12T16:02:55.244Z,2.20
2022-09-12T16:07:56.733Z,4.78
2022-09-12T16:12:59.610Z,5.25
2022-09-12T16:18:01.013Z,10.07
2022-09-12T16:23:03.044Z,4.63
2022-09-12T16:28:05.755Z,2.67
2022-09-12T16:33:07.154Z,2.72
2022-09-12T16:38:08.530Z,3.00
2022-09-12T16:43:09.927Z,4.30
2022-09-12T16:48:11.391Z,2.05
2022-09-12T16:53:13.104Z,3.45
2022-09-12T16:58:14.516Z,2.08
2022-09-12T17:03:18.848Z,2.42
2022-09-12T17:08:22.772Z,3.05
2022-09-12T17:13:27.439Z,4.32
2022-09-12T17:18:38.946Z,3.90
2022-09-12T17:23:41.083Z,4.07
2022-09-12T17:28:42.604Z,2.40
2022-09-12T17:33:44.171Z,3.58
2022-09-12T17:38:46.022Z,2.88
2022-09-12T17:43:50.765Z,4.03
2022-09-12T17:48:53.935Z,2.95
2022-09-12T17:54:08.210Z,4.70
2022-09-12T17:59:14.582Z,3.15
2022-09-12T18:04:16.885Z,3.55
2022-09-12T18:09:21.910Z,7.78
2022-09-12T18:14:23.490Z,3.85
2022-09-12T18:19:24.977Z,3.00
2022-09-12T18:24:26.614Z,3.95
2022-09-12T18:29:28.258Z,4.22
2022-09-12T18:34:29.717Z,4.22
2022-09-12T18:39:31.280Z,3.35
2022-09-12T18:44:32.957Z,4.78
2022-09-12T18:49:34.423Z,2.95
2022-09-12T18:54:36.451Z,7.40
2022-09-12T18:59:37.989Z,3.30
2022-09-12T19:04:39.451Z,4.20
2022-09-12T19:09:40.957Z,4.20
2022-09-12T19:14:42.396Z,4.32
2022-09-12T19:19:44.063Z,4.85
2022-09-12T19:24:45.511Z,7.25
2022-09-12T19:29:47.030Z,7.88
2022-09-12T19:34:48.951Z,3.75
2022-09-12T19:39:50.398Z,4.30
2022-09-12T19:44:55.898Z,4.68
2022-09-12T19:49:57.419Z,6.63
2022-09-12T19:54:58.818Z,5.07
2022-09-12T20:00:00.355Z,6.38
2022-09-12T20:05:01.981Z,5.72
2022-09-12T20:10:03.566Z,7.53
2022-09-12T20:15:05.870Z,3.97
2022-09-12T20:20:11.338Z,6.10
2022-09-12T20:25:12.807Z,6.15
2022-09-12T20:30:15.350Z,6.10
2022-09-12T20:35:17.244Z,4.18
2022-09-12T20:40:18.668Z,5.45
2022-09-12T20:45:20.119Z,4.20
2022-09-12T20:50:21.645Z,5.72
2022-09-12T20:55:23.139Z,4.47
2022-09-12T21:00:24.776Z,4.78
2022-09-12T21:05:26.257Z,4.57
2022-09-12T21:10:27.714Z,7.22
2022-09-12T21:15:29.110Z,5.55
2022-09-12T21:20:31.221Z,5.03
2022-09-12T21:25:32.621Z,6.28
2022-09-12T21:30:34.008Z,5.25
2022-09-12T21:35:35.995Z,7.13
2022-09-12T21:40:37.422Z,7.32
2022-09-12T21:45:38.805Z,5.38
2022-09-12T21:50:40.278Z,7.43
2022-09-12T21:55:41.734Z,4.50
2022-09-12T22:00:43.921Z,4.82
2022-09-12T22:05:45.732Z,4.53
2022-09-12T22:10:47.504Z,7.72
2022-09-12T22:15:52.880Z,3.38
2022-09-12T22:21:22.040Z,4.47
2022-09-12T22:26:23.950Z,3.93
2022-09-12T22:31:26.978Z,4.07
2022-09-12T22:36:31.315Z,5.40
2022-09-12T22:41:33.372Z,3.58
2022-09-12T22:46:34.830Z,4.53
2022-09-12T22:51:36.589Z,2.45
2022-09-12T22:56:38.206Z,2.60
2022-09-12T23:01:39.652Z,3.38
2022-09-12T23:06:41.075Z,3.33
2022-09-12T23:11:42.459Z,2.85
2022-09-12T23:16:43.909Z,3.15
2022-09-12T23:21:45.305Z,2.55
2022-09-12T23:26:46.751Z,2.35
2022-09-12T23:31:48.553Z,1.73
2022-09-12T23:36:49.995Z,1.98
2022-09-12T23:41:52.776Z,2.15
2022-09-12T23:46:54.231Z,2.25
2022-09-12T23:51:55.636Z,2.20
2022-09-12T23:56:57.201Z,2.65
